sensor_id;sensor_type;location;lat;lon;timestamp;P1;durP1;ratioP1;P2;durP2;ratioP2
16727;SDS011;8482;54.396;18.590;2023-08-17T00:00:29;2.67;;;1.50;;
16727;SDS011;8482;54.396;18.590;2023-08-17T00:02:55;2.75;;;1.42;;
16727;SDS011;8482;54.396;18.590;2023-08-17T00:05:21;3.88;;;1.50;;
16727;SDS011;8482;54.396;18.590;2023-08-17T00:07:47;2.20;;;1.48;;
16727;SDS011;8482;54.396;18.590;2023-08-17T00:10:12;2.88;;;1.30;;
16727;SDS011;8482;54.396;18.590;2023-08-17T00:12:38;4.10;;;1.60;;
16727;SDS011;8482;54.396;18.590;2023-08-17T00:15:04;3.25;;;1.40;;
16727;SDS011;8482;54.396;18.590;2023-08-17T00:17:31;2.80;;;1.38;;
16727;SDS011;8482;54.396;18.590;2023-08-17T00:19:57;3.92;;;1.95;;
16727;SDS011;8482;54.396;18.590;2023-08-17T00:22:22;3.15;;;1.40;;
16727;SDS011;8482;54.396;18.590;2023-08-17T00:24:48;2.50;;;1.27;;
16727;SDS011;8482;54.396;18.590;2023-08-17T00:27:14;3.10;;;1.40;;
16727;SDS011;8482;54.396;18.590;2023-08-17T00:29:40;2.90;;;1.30;;
16727;SDS011;8482;54.396;18.590;2023-08-17T00:32:06;1.92;;;1.25;;
16727;SDS011;8482;54.396;18.590;2023-08-17T00:34:32;2.03;;;1.40;;
16727;SDS011;8482;54.396;18.590;2023-08-17T00:36:58;3.95;;;1.40;;
16727;SDS011;8482;54.396;18.590;2023-08-17T00:39:24;2.83;;;1.40;;
16727;SDS011;8482;54.396;18.590;2023-08-17T00:41:49;2.63;;;1.42;;
16727;SDS011;8482;54.396;18.590;2023-08-17T00:44:15;2.78;;;1.65;;
16727;SDS011;8482;54.396;18.590;2023-08-17T00:46:41;3.78;;;1.40;;
16727;SDS011;8482;54.396;18.590;2023-08-17T00:49:07;4.40;;;1.55;;
16727;SDS011;8482;54.396;18.590;2023-08-17T00:51:33;3.10;;;1.42;;
16727;SDS011;8482;54.396;18.590;2023-08-17T00:53:59;2.78;;;1.35;;
16727;SDS011;8482;54.396;18.590;2023-08-17T00:56:27;3.47;;;1.35;;
16727;SDS011;8482;54.396;18.590;2023-08-17T00:58:54;2.83;;;1.25;;
16727;SDS011;8482;54.396;18.590;2023-08-17T01:01:22;2.33;;;1.38;;
16727;SDS011;8482;54.396;18.590;2023-08-17T01:03:49;3.28;;;1.52;;
16727;SDS011;8482;54.396;18.590;2023-08-17T01:06:14;3.30;;;1.52;;
16727;SDS011;8482;54.396;18.590;2023-08-17T01:08:41;4.07;;;1.45;;
16727;SDS011;8482;54.396;18.590;2023-08-17T01:13:39;2.45;;;1.40;;
16727;SDS011;8482;54.396;18.590;2023-08-17T01:16:21;3.13;;;1.40;;
16727;SDS011;8482;54.396;18.590;2023-08-17T01:19:06;3.42;;;1.48;;
16727;SDS011;8482;54.396;18.590;2023-08-17T01:21:42;2.63;;;1.25;;
16727;SDS011;8482;54.396;18.590;2023-08-17T01:24:15;2.80;;;1.20;;
16727;SDS011;8482;54.396;18.590;2023-08-17T01:26:41;2.53;;;1.70;;
16727;SDS011;8482;54.396;18.590;2023-08-17T01:29:07;2.85;;;1.48;;
16727;SDS011;8482;54.396;18.590;2023-08-17T01:31:36;3.55;;;1.35;;
16727;SDS011;8482;54.396;18.590;2023-08-17T01:34:24;2.30;;;1.15;;
16727;SDS011;8482;54.396;18.590;2023-08-17T01:36:53;4.18;;;1.50;;
16727;SDS011;8482;54.396;18.590;2023-08-17T01:39:26;4.82;;;1.73;;
16727;SDS011;8482;54.396;18.590;2023-08-17T01:42:02;3.28;;;1.58;;
16727;SDS011;8482;54.396;18.590;2023-08-17T01:44:30;2.78;;;1.40;;
16727;SDS011;8482;54.396;18.590;2023-08-17T01:46:56;4.43;;;1.35;;
16727;SDS011;8482;54.396;18.590;2023-08-17T01:49:22;4.22;;;1.48;;
16727;SDS011;8482;54.396;18.590;2023-08-17T01:51:48;1.77;;;1.33;;
16727;SDS011;8482;54.396;18.590;2023-08-17T01:54:13;3.92;;;1.40;;
16727;SDS011;8482;54.396;18.590;2023-08-17T01:56:39;2.88;;;1.42;;
16727;SDS011;8482;54.396;18.590;2023-08-17T01:59:05;3.55;;;1.35;;
16727;SDS011;8482;54.396;18.590;2023-08-17T02:01:31;2.35;;;1.27;;
16727;SDS011;8482;54.396;18.590;2023-08-17T02:03:57;1.65;;;1.17;;
16727;SDS011;8482;54.396;18.590;2023-08-17T02:06:24;2.42;;;1.30;;
16727;SDS011;8482;54.396;18.590;2023-08-17T02:08:50;2.92;;;1.35;;
16727;SDS011;8482;54.396;18.590;2023-08-17T02:11:16;3.38;;;1.20;;
16727;SDS011;8482;54.396;18.590;2023-08-17T02:13:42;2.85;;;1.80;;
16727;SDS011;8482;54.396;18.590;2023-08-17T02:16:08;3.65;;;1.50;;
16727;SDS011;8482;54.396;18.590;2023-08-17T02:18:34;3.80;;;1.60;;
16727;SDS011;8482;54.396;18.590;2023-08-17T02:21:00;3.08;;;1.38;;
16727;SDS011;8482;54.396;18.590;2023-08-17T02:23:25;3.17;;;1.70;;
16727;SDS011;8482;54.396;18.590;2023-08-17T02:25:51;2.55;;;1.50;;
16727;SDS011;8482;54.396;18.590;2023-08-17T02:28:17;2.42;;;1.25;;
16727;SDS011;8482;54.396;18.590;2023-08-17T02:30:43;4.03;;;1.30;;
16727;SDS011;8482;54.396;18.590;2023-08-17T02:33:09;2.53;;;1.40;;
16727;SDS011;8482;54.396;18.590;2023-08-17T02:35:34;2.95;;;1.30;;
16727;SDS011;8482;54.396;18.590;2023-08-17T02:38:00;2.50;;;1.30;;
16727;SDS011;8482;54.396;18.590;2023-08-17T02:40:26;2.03;;;1.20;;
16727;SDS011;8482;54.396;18.590;2023-08-17T02:42:52;1.48;;;1.38;;
16727;SDS011;8482;54.396;18.590;2023-08-17T02:45:18;3.90;;;1.60;;
16727;SDS011;8482;54.396;18.590;2023-08-17T02:47:44;4.82;;;1.92;;
16727;SDS011;8482;54.396;18.590;2023-08-17T02:50:09;2.80;;;1.38;;
16727;SDS011;8482;54.396;18.590;2023-08-17T02:52:35;4.18;;;1.60;;
16727;SDS011;8482;54.396;18.590;2023-08-17T02:55:01;2.90;;;1.50;;
16727;SDS011;8482;54.396;18.590;2023-08-17T02:57:27;2.95;;;1.20;;
16727;SDS011;8482;54.396;18.590;2023-08-17T02:59:53;2.45;;;1.45;;
16727;SDS011;8482;54.396;18.590;2023-08-17T03:02:19;3.28;;;1.42;;
16727;SDS011;8482;54.396;18.590;2023-08-17T03:04:45;3.03;;;1.33;;
16727;SDS011;8482;54.396;18.590;2023-08-17T03:07:10;3.63;;;1.50;;
16727;SDS011;8482;54.396;18.590;2023-08-17T03:09:36;2.80;;;1.40;;
16727;SDS011;8482;54.396;18.590;2023-08-17T03:12:02;2.70;;;1.60;;
16727;SDS011;8482;54.396;18.590;2023-08-17T03:14:28;3.05;;;1.40;;
16727;SDS011;8482;54.396;18.590;2023-08-17T03:16:54;2.97;;;1.70;;
16727;SDS011;8482;54.396;18.590;2023-08-17T03:19:20;3.05;;;1.30;;
16727;SDS011;8482;54.396;18.590;2023-08-17T03:21:46;3.08;;;1.52;;
16727;SDS011;8482;54.396;18.590;2023-08-17T03:24:12;4.28;;;1.58;;
16727;SDS011;8482;54.396;18.590;2023-08-17T03:26:38;4.00;;;1.70;;
16727;SDS011;8482;54.396;18.590;2023-08-17T03:29:03;2.75;;;1.50;;
16727;SDS011;8482;54.396;18.590;2023-08-17T03:31:29;2.38;;;1.40;;
16727;SDS011;8482;54.396;18.590;2023-08-17T03:33:55;1.98;;;1.35;;
16727;SDS011;8482;54.396;18.590;2023-08-17T03:36:22;3.28;;;1.50;;
16727;SDS011;8482;54.396;18.590;2023-08-17T03:38:48;2.50;;;1.40;;
16727;SDS011;8482;54.396;18.590;2023-08-17T03:41:13;4.82;;;1.65;;
16727;SDS011;8482;54.396;18.590;2023-08-17T03:43:39;2.20;;;1.15;;
16727;SDS011;8482;54.396;18.590;2023-08-17T03:46:05;1.67;;;1.30;;
16727;SDS011;8482;54.396;18.590;2023-08-17T03:48:31;4.20;;;1.38;;
16727;SDS011;8482;54.396;18.590;2023-08-17T03:50:56;3.28;;;1.50;;
16727;SDS011;8482;54.396;18.590;2023-08-17T03:53:22;1.67;;;1.00;;
16727;SDS011;8482;54.396;18.590;2023-08-17T03:55:48;2.45;;;1.48;;
16727;SDS011;8482;54.396;18.590;2023-08-17T03:58:15;3.28;;;1.40;;
16727;SDS011;8482;54.396;18.590;2023-08-17T04:00:52;3.42;;;1.45;;
16727;SDS011;8482;54.396;18.590;2023-08-17T04:03:19;3.25;;;1.70;;
16727;SDS011;8482;54.396;18.590;2023-08-17T04:05:45;3.00;;;1.63;;
16727;SDS011;8482;54.396;18.590;2023-08-17T04:08:11;1.88;;;1.30;;
16727;SDS011;8482;54.396;18.590;2023-08-17T04:10:37;2.50;;;1.10;;
16727;SDS011;8482;54.396;18.590;2023-08-17T04:13:03;2.60;;;1.20;;
16727;SDS011;8482;54.396;18.590;2023-08-17T04:15:29;3.65;;;1.40;;
16727;SDS011;8482;54.396;18.590;2023-08-17T04:17:55;2.53;;;1.10;;
16727;SDS011;8482;54.396;18.590;2023-08-17T04:20:21;2.40;;;1.20;;
16727;SDS011;8482;54.396;18.590;2023-08-17T04:22:47;2.55;;;1.40;;
16727;SDS011;8482;54.396;18.590;2023-08-17T04:25:13;2.75;;;1.60;;
16727;SDS011;8482;54.396;18.590;2023-08-17T04:27:40;2.15;;;1.13;;
16727;SDS011;8482;54.396;18.590;2023-08-17T04:30:06;2.63;;;1.40;;
16727;SDS011;8482;54.396;18.590;2023-08-17T04:32:34;3.80;;;1.33;;
16727;SDS011;8482;54.396;18.590;2023-08-17T04:35:00;5.10;;;1.75;;
16727;SDS011;8482;54.396;18.590;2023-08-17T04:37:26;2.83;;;1.60;;
16727;SDS011;8482;54.396;18.590;2023-08-17T04:39:52;4.88;;;1.60;;
16727;SDS011;8482;54.396;18.590;2023-08-17T04:42:18;2.63;;;1.17;;
16727;SDS011;8482;54.396;18.590;2023-08-17T04:44:45;3.33;;;1.40;;
16727;SDS011;8482;54.396;18.590;2023-08-17T04:47:11;2.03;;;1.23;;
16727;SDS011;8482;54.396;18.590;2023-08-17T04:49:37;3.22;;;1.50;;
16727;SDS011;8482;54.396;18.590;2023-08-17T04:52:03;2.97;;;1.48;;
16727;SDS011;8482;54.396;18.590;2023-08-17T04:54:29;3.28;;;1.30;;
16727;SDS011;8482;54.396;18.590;2023-08-17T04:56:55;3.83;;;1.50;;
16727;SDS011;8482;54.396;18.590;2023-08-17T04:59:21;3.95;;;1.45;;
16727;SDS011;8482;54.396;18.590;2023-08-17T05:01:47;3.05;;;1.50;;
16727;SDS011;8482;54.396;18.590;2023-08-17T05:04:12;1.77;;;1.20;;
16727;SDS011;8482;54.396;18.590;2023-08-17T05:06:38;2.95;;;1.35;;
16727;SDS011;8482;54.396;18.590;2023-08-17T05:09:04;2.47;;;1.20;;
16727;SDS011;8482;54.396;18.590;2023-08-17T05:11:30;3.83;;;2.08;;
16727;SDS011;8482;54.396;18.590;2023-08-17T05:13:56;4.15;;;2.22;;
16727;SDS011;8482;54.396;18.590;2023-08-17T05:16:22;4.63;;;2.35;;
16727;SDS011;8482;54.396;18.590;2023-08-17T05:18:48;3.55;;;1.70;;
16727;SDS011;8482;54.396;18.590;2023-08-17T05:21:14;3.60;;;1.50;;
16727;SDS011;8482;54.396;18.590;2023-08-17T05:23:39;2.97;;;1.80;;
16727;SDS011;8482;54.396;18.590;2023-08-17T05:26:05;2.55;;;1.52;;
16727;SDS011;8482;54.396;18.590;2023-08-17T05:28:31;3.00;;;1.40;;
16727;SDS011;8482;54.396;18.590;2023-08-17T05:31:02;4.75;;;1.80;;
16727;SDS011;8482;54.396;18.590;2023-08-17T05:33:31;3.22;;;1.45;;
16727;SDS011;8482;54.396;18.590;2023-08-17T05:35:57;2.88;;;1.40;;
16727;SDS011;8482;54.396;18.590;2023-08-17T05:38:24;4.20;;;1.80;;
16727;SDS011;8482;54.396;18.590;2023-08-17T05:40:54;3.45;;;1.75;;
16727;SDS011;8482;54.396;18.590;2023-08-17T05:43:21;3.63;;;1.92;;
16727;SDS011;8482;54.396;18.590;2023-08-17T05:45:48;4.47;;;1.70;;
16727;SDS011;8482;54.396;18.590;2023-08-17T05:48:14;3.90;;;1.67;;
16727;SDS011;8482;54.396;18.590;2023-08-17T05:50:43;4.50;;;1.60;;
16727;SDS011;8482;54.396;18.590;2023-08-17T05:53:09;4.68;;;1.63;;
16727;SDS011;8482;54.396;18.590;2023-08-17T05:55:35;4.88;;;1.70;;
16727;SDS011;8482;54.396;18.590;2023-08-17T05:58:01;3.67;;;1.63;;
16727;SDS011;8482;54.396;18.590;2023-08-17T06:00:29;5.22;;;2.28;;
16727;SDS011;8482;54.396;18.590;2023-08-17T06:02:55;3.25;;;1.50;;
16727;SDS011;8482;54.396;18.590;2023-08-17T06:05:26;4.88;;;2.10;;
16727;SDS011;8482;54.396;18.590;2023-08-17T06:07:54;5.30;;;2.42;;
16727;SDS011;8482;54.396;18.590;2023-08-17T06:10:21;6.15;;;2.15;;
16727;SDS011;8482;54.396;18.590;2023-08-17T06:12:54;5.10;;;2.10;;
16727;SDS011;8482;54.396;18.590;2023-08-17T06:15:22;4.55;;;1.60;;
16727;SDS011;8482;54.396;18.590;2023-08-17T06:17:49;3.25;;;1.67;;
16727;SDS011;8482;54.396;18.590;2023-08-17T06:20:15;5.57;;;2.00;;
16727;SDS011;8482;54.396;18.590;2023-08-17T06:22:42;5.80;;;2.30;;
16727;SDS011;8482;54.396;18.590;2023-08-17T06:25:08;5.85;;;2.58;;
16727;SDS011;8482;54.396;18.590;2023-08-17T06:27:35;7.80;;;2.88;;
16727;SDS011;8482;54.396;18.590;2023-08-17T06:30:02;4.35;;;2.40;;
16727;SDS011;8482;54.396;18.590;2023-08-17T06:32:29;4.32;;;2.20;;
16727;SDS011;8482;54.396;18.590;2023-08-17T06:34:56;5.20;;;2.10;;
16727;SDS011;8482;54.396;18.590;2023-08-17T06:37:22;3.60;;;2.33;;
16727;SDS011;8482;54.396;18.590;2023-08-17T06:39:49;4.97;;;2.55;;
16727;SDS011;8482;54.396;18.590;2023-08-17T06:42:15;3.25;;;2.17;;
16727;SDS011;8482;54.396;18.590;2023-08-17T06:44:41;5.10;;;2.60;;
16727;SDS011;8482;54.396;18.590;2023-08-17T06:47:07;4.93;;;2.20;;
16727;SDS011;8482;54.396;18.590;2023-08-17T06:49:33;5.97;;;2.20;;
16727;SDS011;8482;54.396;18.590;2023-08-17T06:52:00;5.15;;;2.50;;
16727;SDS011;8482;54.396;18.590;2023-08-17T06:54:26;3.92;;;2.10;;
16727;SDS011;8482;54.396;18.590;2023-08-17T06:56:52;6.30;;;2.75;;
16727;SDS011;8482;54.396;18.590;2023-08-17T06:59:18;4.90;;;2.50;;
16727;SDS011;8482;54.396;18.590;2023-08-17T07:01:44;4.95;;;2.88;;
16727;SDS011;8482;54.396;18.590;2023-08-17T07:04:11;6.25;;;2.75;;
16727;SDS011;8482;54.396;18.590;2023-08-17T07:06:36;6.00;;;2.67;;
16727;SDS011;8482;54.396;18.590;2023-08-17T07:09:02;6.03;;;2.97;;
16727;SDS011;8482;54.396;18.590;2023-08-17T07:11:30;6.57;;;2.63;;
16727;SDS011;8482;54.396;18.590;2023-08-17T07:13:56;5.70;;;2.85;;
16727;SDS011;8482;54.396;18.590;2023-08-17T07:16:22;5.97;;;2.92;;
16727;SDS011;8482;54.396;18.590;2023-08-17T07:18:48;5.65;;;3.05;;
16727;SDS011;8482;54.396;18.590;2023-08-17T07:21:14;7.88;;;3.17;;
16727;SDS011;8482;54.396;18.590;2023-08-17T07:23:43;5.85;;;3.03;;
16727;SDS011;8482;54.396;18.590;2023-08-17T07:26:11;8.57;;;3.75;;
16727;SDS011;8482;54.396;18.590;2023-08-17T07:28:37;6.65;;;3.33;;
16727;SDS011;8482;54.396;18.590;2023-08-17T07:31:03;5.07;;;2.92;;
16727;SDS011;8482;54.396;18.590;2023-08-17T07:33:31;7.03;;;3.05;;
16727;SDS011;8482;54.396;18.590;2023-08-17T07:35:57;4.68;;;2.30;;
16727;SDS011;8482;54.396;18.590;2023-08-17T07:38:23;4.55;;;2.38;;
16727;SDS011;8482;54.396;18.590;2023-08-17T07:40:49;4.43;;;2.30;;
16727;SDS011;8482;54.396;18.590;2023-08-17T07:43:15;5.45;;;2.70;;
16727;SDS011;8482;54.396;18.590;2023-08-17T07:45:41;4.38;;;2.20;;
16727;SDS011;8482;54.396;18.590;2023-08-17T07:48:07;5.07;;;2.80;;
16727;SDS011;8482;54.396;18.590;2023-08-17T07:50:33;6.72;;;2.55;;
16727;SDS011;8482;54.396;18.590;2023-08-17T07:52:59;4.95;;;2.55;;
16727;SDS011;8482;54.396;18.590;2023-08-17T07:55:25;5.85;;;2.80;;
16727;SDS011;8482;54.396;18.590;2023-08-17T07:57:51;5.80;;;3.38;;
16727;SDS011;8482;54.396;18.590;2023-08-17T08:00:17;6.47;;;2.33;;
16727;SDS011;8482;54.396;18.590;2023-08-17T08:02:43;4.32;;;2.45;;
16727;SDS011;8482;54.396;18.590;2023-08-17T08:05:09;5.78;;;2.67;;
16727;SDS011;8482;54.396;18.590;2023-08-17T08:07:35;5.25;;;2.65;;
16727;SDS011;8482;54.396;18.590;2023-08-17T08:10:01;6.93;;;2.60;;
16727;SDS011;8482;54.396;18.590;2023-08-17T08:12:27;5.10;;;2.50;;
16727;SDS011;8482;54.396;18.590;2023-08-17T08:14:53;4.28;;;2.40;;
16727;SDS011;8482;54.396;18.590;2023-08-17T08:17:19;6.97;;;3.10;;
16727;SDS011;8482;54.396;18.590;2023-08-17T08:19:45;7.28;;;2.70;;
16727;SDS011;8482;54.396;18.590;2023-08-17T08:22:10;5.00;;;2.53;;
16727;SDS011;8482;54.396;18.590;2023-08-17T08:24:36;4.05;;;2.20;;
16727;SDS011;8482;54.396;18.590;2023-08-17T08:27:04;3.83;;;2.20;;
16727;SDS011;8482;54.396;18.590;2023-08-17T08:29:30;3.05;;;2.05;;
16727;SDS011;8482;54.396;18.590;2023-08-17T08:31:56;3.45;;;2.10;;
16727;SDS011;8482;54.396;18.590;2023-08-17T08:34:24;4.00;;;2.10;;
16727;SDS011;8482;54.396;18.590;2023-08-17T08:36:50;3.38;;;2.00;;
16727;SDS011;8482;54.396;18.590;2023-08-17T08:39:16;4.88;;;2.35;;
16727;SDS011;8482;54.396;18.590;2023-08-17T08:41:42;4.35;;;2.10;;
16727;SDS011;8482;54.396;18.590;2023-08-17T08:44:08;5.18;;;2.70;;
16727;SDS011;8482;54.396;18.590;2023-08-17T08:46:34;7.55;;;2.47;;
16727;SDS011;8482;54.396;18.590;2023-08-17T08:49:07;3.83;;;2.35;;
16727;SDS011;8482;54.396;18.590;2023-08-17T08:51:37;4.82;;;2.20;;
16727;SDS011;8482;54.396;18.590;2023-08-17T08:54:13;5.10;;;2.10;;
16727;SDS011;8482;54.396;18.590;2023-08-17T08:56:43;5.45;;;2.00;;
16727;SDS011;8482;54.396;18.590;2023-08-17T08:59:13;3.80;;;1.80;;
16727;SDS011;8482;54.396;18.590;2023-08-17T09:01:41;3.53;;;1.75;;
16727;SDS011;8482;54.396;18.590;2023-08-17T09:04:08;3.90;;;1.80;;
16727;SDS011;8482;54.396;18.590;2023-08-17T09:06:34;5.85;;;2.50;;
16727;SDS011;8482;54.396;18.590;2023-08-17T09:09:02;4.60;;;2.30;;
16727;SDS011;8482;54.396;18.590;2023-08-17T09:11:29;4.57;;;2.10;;
16727;SDS011;8482;54.396;18.590;2023-08-17T09:13:55;4.75;;;2.08;;
16727;SDS011;8482;54.396;18.590;2023-08-17T09:16:21;3.55;;;1.95;;
16727;SDS011;8482;54.396;18.590;2023-08-17T09:18:47;4.32;;;2.05;;
16727;SDS011;8482;54.396;18.590;2023-08-17T09:21:19;2.72;;;1.80;;
16727;SDS011;8482;54.396;18.590;2023-08-17T09:23:53;2.95;;;1.80;;
16727;SDS011;8482;54.396;18.590;2023-08-17T09:26:21;4.15;;;1.50;;
16727;SDS011;8482;54.396;18.590;2023-08-17T09:28:48;3.15;;;1.42;;
16727;SDS011;8482;54.396;18.590;2023-08-17T09:31:15;2.13;;;1.35;;
16727;SDS011;8482;54.396;18.590;2023-08-17T09:33:48;3.03;;;1.85;;
16727;SDS011;8482;54.396;18.590;2023-08-17T09:36:20;3.33;;;1.48;;
16727;SDS011;8482;54.396;18.590;2023-08-17T09:38:50;5.50;;;1.63;;
16727;SDS011;8482;54.396;18.590;2023-08-17T09:41:17;2.53;;;1.60;;
16727;SDS011;8482;54.396;18.590;2023-08-17T09:43:44;3.25;;;1.50;;
16727;SDS011;8482;54.396;18.590;2023-08-17T09:46:11;2.08;;;1.17;;
16727;SDS011;8482;54.396;18.590;2023-08-17T09:48:38;2.63;;;1.52;;
16727;SDS011;8482;54.396;18.590;2023-08-17T09:51:03;3.10;;;1.75;;
16727;SDS011;8482;54.396;18.590;2023-08-17T09:53:34;3.70;;;1.73;;
16727;SDS011;8482;54.396;18.590;2023-08-17T09:56:02;3.17;;;1.73;;
16727;SDS011;8482;54.396;18.590;2023-08-17T09:58:36;4.07;;;1.60;;
16727;SDS011;8482;54.396;18.590;2023-08-17T10:01:03;3.70;;;1.70;;
16727;SDS011;8482;54.396;18.590;2023-08-17T10:03:33;4.05;;;1.50;;
16727;SDS011;8482;54.396;18.590;2023-08-17T10:06:02;4.20;;;1.60;;
16727;SDS011;8482;54.396;18.590;2023-08-17T10:08:32;8.30;;;2.00;;
16727;SDS011;8482;54.396;18.590;2023-08-17T10:11:03;5.57;;;1.80;;
16727;SDS011;8482;54.396;18.590;2023-08-17T10:13:35;3.58;;;1.70;;
16727;SDS011;8482;54.396;18.590;2023-08-17T10:16:11;3.95;;;1.88;;
16727;SDS011;8482;54.396;18.590;2023-08-17T10:18:57;3.88;;;1.83;;
16727;SDS011;8482;54.396;18.590;2023-08-17T10:21:54;2.80;;;1.70;;
16727;SDS011;8482;54.396;18.590;2023-08-17T10:24:35;4.82;;;1.80;;
16727;SDS011;8482;54.396;18.590;2023-08-17T10:27:04;3.75;;;1.67;;
16727;SDS011;8482;54.396;18.590;2023-08-17T10:29:31;4.50;;;1.75;;
16727;SDS011;8482;54.396;18.590;2023-08-17T10:31:59;5.15;;;2.25;;
16727;SDS011;8482;54.396;18.590;2023-08-17T10:34:26;4.53;;;2.40;;
16727;SDS011;8482;54.396;18.590;2023-08-17T10:36:54;6.55;;;2.30;;
16727;SDS011;8482;54.396;18.590;2023-08-17T10:39:23;3.53;;;2.00;;
16727;SDS011;8482;54.396;18.590;2023-08-17T10:41:52;4.53;;;2.00;;
16727;SDS011;8482;54.396;18.590;2023-08-17T10:47:18;4.18;;;1.73;;
16727;SDS011;8482;54.396;18.590;2023-08-17T10:50:03;4.53;;;1.92;;
16727;SDS011;8482;54.396;18.590;2023-08-17T10:52:47;3.60;;;1.90;;
16727;SDS011;8482;54.396;18.590;2023-08-17T10:55:15;6.57;;;2.72;;
16727;SDS011;8482;54.396;18.590;2023-08-17T10:57:42;5.55;;;2.13;;
16727;SDS011;8482;54.396;18.590;2023-08-17T11:02:52;6.28;;;1.80;;
16727;SDS011;8482;54.396;18.590;2023-08-17T11:13:36;3.40;;;1.73;;
16727;SDS011;8482;54.396;18.590;2023-08-17T11:16:07;3.58;;;1.83;;
16727;SDS011;8482;54.396;18.590;2023-08-17T11:18:37;6.40;;;1.90;;
16727;SDS011;8482;54.396;18.590;2023-08-17T11:21:04;5.25;;;1.70;;
16727;SDS011;8482;54.396;18.590;2023-08-17T11:23:33;4.88;;;1.77;;
16727;SDS011;8482;54.396;18.590;2023-08-17T11:26:01;4.38;;;2.00;;
16727;SDS011;8482;54.396;18.590;2023-08-17T11:28:31;5.32;;;2.05;;
16727;SDS011;8482;54.396;18.590;2023-08-17T11:31:03;6.55;;;2.00;;
16727;SDS011;8482;54.396;18.590;2023-08-17T11:33:33;3.58;;;1.70;;
16727;SDS011;8482;54.396;18.590;2023-08-17T11:36:01;4.38;;;2.20;;
16727;SDS011;8482;54.396;18.590;2023-08-17T11:38:34;3.95;;;1.80;;
16727;SDS011;8482;54.396;18.590;2023-08-17T11:41:03;4.57;;;2.08;;
16727;SDS011;8482;54.396;18.590;2023-08-17T11:43:29;5.35;;;1.92;;
16727;SDS011;8482;54.396;18.590;2023-08-17T11:45:57;4.60;;;2.60;;
16727;SDS011;8482;54.396;18.590;2023-08-17T11:48:25;2.53;;;1.58;;
16727;SDS011;8482;54.396;18.590;2023-08-17T11:50:52;2.58;;;1.77;;
16727;SDS011;8482;54.396;18.590;2023-08-17T11:53:20;4.22;;;1.73;;
16727;SDS011;8482;54.396;18.590;2023-08-17T11:55:46;3.67;;;1.92;;
16727;SDS011;8482;54.396;18.590;2023-08-17T11:58:12;5.10;;;1.83;;
16727;SDS011;8482;54.396;18.590;2023-08-17T12:00:42;6.25;;;2.10;;
16727;SDS011;8482;54.396;18.590;2023-08-17T12:03:15;6.60;;;2.25;;
16727;SDS011;8482;54.396;18.590;2023-08-17T12:05:42;5.65;;;2.40;;
16727;SDS011;8482;54.396;18.590;2023-08-17T12:08:10;5.25;;;2.63;;
16727;SDS011;8482;54.396;18.590;2023-08-17T12:10:38;5.25;;;2.03;;
16727;SDS011;8482;54.396;18.590;2023-08-17T12:13:04;5.03;;;2.10;;
16727;SDS011;8482;54.396;18.590;2023-08-17T12:15:31;4.10;;;1.60;;
16727;SDS011;8482;54.396;18.590;2023-08-17T12:18:02;3.17;;;2.10;;
16727;SDS011;8482;54.396;18.590;2023-08-17T12:20:29;4.47;;;1.90;;
16727;SDS011;8482;54.396;18.590;2023-08-17T12:22:58;3.60;;;2.10;;
16727;SDS011;8482;54.396;18.590;2023-08-17T12:25:24;3.63;;;1.90;;
16727;SDS011;8482;54.396;18.590;2023-08-17T12:27:51;5.60;;;1.67;;
16727;SDS011;8482;54.396;18.590;2023-08-17T12:30:24;4.40;;;2.05;;
16727;SDS011;8482;54.396;18.590;2023-08-17T12:32:53;2.80;;;1.80;;
16727;SDS011;8482;54.396;18.590;2023-08-17T12:35:19;4.30;;;2.00;;
16727;SDS011;8482;54.396;18.590;2023-08-17T12:37:48;4.85;;;2.28;;
16727;SDS011;8482;54.396;18.590;2023-08-17T12:40:13;3.10;;;1.80;;
16727;SDS011;8482;54.396;18.590;2023-08-17T12:42:39;3.67;;;1.88;;
16727;SDS011;8482;54.396;18.590;2023-08-17T12:45:05;4.28;;;1.60;;
16727;SDS011;8482;54.396;18.590;2023-08-17T12:47:31;5.72;;;1.85;;
16727;SDS011;8482;54.396;18.590;2023-08-17T12:49:57;3.53;;;1.75;;
16727;SDS011;8482;54.396;18.590;2023-08-17T12:52:23;3.70;;;1.67;;
16727;SDS011;8482;54.396;18.590;2023-08-17T12:54:49;2.63;;;1.35;;
16727;SDS011;8482;54.396;18.590;2023-08-17T12:57:15;4.35;;;1.55;;
16727;SDS011;8482;54.396;18.590;2023-08-17T12:59:40;6.15;;;2.13;;
16727;SDS011;8482;54.396;18.590;2023-08-17T13:02:06;4.40;;;1.90;;
16727;SDS011;8482;54.396;18.590;2023-08-17T13:04:32;4.68;;;2.92;;
16727;SDS011;8482;54.396;18.590;2023-08-17T13:06:58;6.07;;;2.42;;
16727;SDS011;8482;54.396;18.590;2023-08-17T13:09:24;4.55;;;2.05;;
16727;SDS011;8482;54.396;18.590;2023-08-17T13:11:50;3.03;;;1.80;;
16727;SDS011;8482;54.396;18.590;2023-08-17T13:14:15;4.90;;;1.98;;
16727;SDS011;8482;54.396;18.590;2023-08-17T13:16:42;4.88;;;1.90;;
16727;SDS011;8482;54.396;18.590;2023-08-17T13:19:07;3.83;;;1.77;;
16727;SDS011;8482;54.396;18.590;2023-08-17T13:21:33;4.65;;;2.22;;
16727;SDS011;8482;54.396;18.590;2023-08-17T13:23:59;6.95;;;2.20;;
16727;SDS011;8482;54.396;18.590;2023-08-17T13:26:25;5.13;;;2.28;;
16727;SDS011;8482;54.396;18.590;2023-08-17T13:28:51;6.03;;;2.50;;
16727;SDS011;8482;54.396;18.590;2023-08-17T13:31:16;4.20;;;2.10;;
16727;SDS011;8482;54.396;18.590;2023-08-17T13:33:42;3.80;;;1.90;;
16727;SDS011;8482;54.396;18.590;2023-08-17T13:36:08;4.75;;;1.67;;
16727;SDS011;8482;54.396;18.590;2023-08-17T13:38:34;3.88;;;1.60;;
16727;SDS011;8482;54.396;18.590;2023-08-17T13:41:00;4.07;;;1.70;;
16727;SDS011;8482;54.396;18.590;2023-08-17T13:43:25;4.68;;;2.15;;
16727;SDS011;8482;54.396;18.590;2023-08-17T13:45:51;4.47;;;1.98;;
16727;SDS011;8482;54.396;18.590;2023-08-17T13:48:17;4.93;;;2.25;;
16727;SDS011;8482;54.396;18.590;2023-08-17T13:50:43;6.00;;;2.50;;
16727;SDS011;8482;54.396;18.590;2023-08-17T13:53:10;4.10;;;2.08;;
16727;SDS011;8482;54.396;18.590;2023-08-17T13:55:35;7.32;;;2.38;;
16727;SDS011;8482;54.396;18.590;2023-08-17T13:58:01;5.00;;;2.38;;
16727;SDS011;8482;54.396;18.590;2023-08-17T14:00:27;6.78;;;2.42;;
16727;SDS011;8482;54.396;18.590;2023-08-17T14:02:53;4.82;;;1.85;;
16727;SDS011;8482;54.396;18.590;2023-08-17T14:05:19;5.50;;;2.22;;
16727;SDS011;8482;54.396;18.590;2023-08-17T14:07:45;5.88;;;3.05;;
16727;SDS011;8482;54.396;18.590;2023-08-17T14:10:13;4.20;;;1.98;;
16727;SDS011;8482;54.396;18.590;2023-08-17T14:12:39;4.20;;;1.80;;
16727;SDS011;8482;54.396;18.590;2023-08-17T14:15:06;4.22;;;1.90;;
16727;SDS011;8482;54.396;18.590;2023-08-17T14:17:32;7.30;;;2.10;;
16727;SDS011;8482;54.396;18.590;2023-08-17T14:19:58;4.50;;;1.90;;
16727;SDS011;8482;54.396;18.590;2023-08-17T14:22:24;4.50;;;2.25;;
16727;SDS011;8482;54.396;18.590;2023-08-17T14:24:50;7.07;;;2.83;;
16727;SDS011;8482;54.396;18.590;2023-08-17T14:27:16;4.90;;;1.67;;
16727;SDS011;8482;54.396;18.590;2023-08-17T14:29:42;4.35;;;1.58;;
16727;SDS011;8482;54.396;18.590;2023-08-17T14:32:07;2.92;;;1.35;;
16727;SDS011;8482;54.396;18.590;2023-08-17T14:34:33;3.67;;;1.40;;
16727;SDS011;8482;54.396;18.590;2023-08-17T14:36:59;2.63;;;1.45;;
16727;SDS011;8482;54.396;18.590;2023-08-17T14:39:25;2.70;;;1.30;;
16727;SDS011;8482;54.396;18.590;2023-08-17T14:41:51;3.78;;;1.50;;
16727;SDS011;8482;54.396;18.590;2023-08-17T14:44:17;4.15;;;2.15;;
16727;SDS011;8482;54.396;18.590;2023-08-17T14:46:43;3.58;;;1.67;;
16727;SDS011;8482;54.396;18.590;2023-08-17T14:49:09;4.32;;;1.70;;
16727;SDS011;8482;54.396;18.590;2023-08-17T14:51:38;4.38;;;1.58;;
16727;SDS011;8482;54.396;18.590;2023-08-17T14:54:06;4.63;;;1.40;;
16727;SDS011;8482;54.396;18.590;2023-08-17T14:56:33;3.88;;;1.63;;
16727;SDS011;8482;54.396;18.590;2023-08-17T14:58:59;3.65;;;1.50;;
16727;SDS011;8482;54.396;18.590;2023-08-17T15:01:25;3.97;;;1.63;;
16727;SDS011;8482;54.396;18.590;2023-08-17T15:03:51;3.85;;;1.67;;